Time;durP1;ratioP1;P1;durP2;ratioP2;P2;SDS_P1;SDS_P2;PMS_P1;PMS_P2;Temp;Humidity;BMP_temperature;BMP_pressure;BME280_temperature;BME280_humidity;BME280_pressure;Samples;Min_cycle;Max_cycle;Signal;HPM_P1;HPM_P2
2023/09/12 00:00:27;;;;;;;15.80;8.55;;;;;;;;;;5036021;28;20044;-89
2023/09/12 00:02:54;;;;;;;16.42;8.95;;;;;;;;;;5035791;28;20053;-88
2023/09/12 00:05:21;;;;;;;15.25;9.63;;;;;;;;;;5035741;28;20421;-88
2023/09/12 00:07:52;;;;;;;18.52;9.50;;;;;;;;;;5035452;28;20085;-89
2023/09/12 00:10:19;;;;;;;19.85;9.32;;;;;;;;;;5035274;28;20056;-89
2023/09/12 00:12:47;;;;;;;14.48;8.48;;;;;;;;;;5035933;28;20061;-89
2023/09/12 00:15:14;;;;;;;16.02;8.95;;;;;;;;;;5035740;28;20053;-88
2023/09/12 00:17:42;;;;;;;11.63;9.18;;;;;;;;;;5052848;28;20051;-88
2023/09/12 00:20:09;;;;;;;11.07;8.77;;;;;;;;;;5035641;28;20057;-88
2023/09/12 00:22:36;;;;;;;14.93;8.63;;;;;;;;;;5035606;28;20052;-88
2023/09/12 00:25:04;;;;;;;13.48;8.15;;;;;;;;;;5035795;28;20110;-89
2023/09/12 00:27:32;;;;;;;11.45;8.35;;;;;;;;;;5035534;28;20049;-88
2023/09/12 00:29:59;;;;;;;16.83;8.98;;;;;;;;;;5035700;28;20049;-88
2023/09/12 00:32:29;;;;;;;12.88;8.82;;;;;;;;;;5036471;28;20049;-89
2023/09/12 00:34:56;;;;;;;11.18;8.32;;;;;;;;;;5052996;28;20104;-89
2023/09/12 00:37:23;;;;;;;13.70;9.13;;;;;;;;;;5052650;28;20049;-88
2023/09/12 00:39:51;;;;;;;12.73;7.88;;;;;;;;;;5052595;28;20103;-88
2023/09/12 00:42:18;;;;;;;11.65;8.13;;;;;;;;;;5053018;28;20045;-88
2023/09/12 00:44:45;;;;;;;16.02;9.48;;;;;;;;;;5035008;28;20080;-88
2023/09/12 00:47:13;;;;;;;12.52;9.02;;;;;;;;;;5052655;28;20130;-88
2023/09/12 00:49:41;;;;;;;15.43;9.18;;;;;;;;;;5035334;28;20076;-88
2023/09/12 00:52:08;;;;;;;11.10;9.00;;;;;;;;;;5035242;28;20103;-88
2023/09/12 00:54:36;;;;;;;11.82;9.02;;;;;;;;;;5035603;28;20049;-88
2023/09/12 00:57:03;;;;;;;15.18;9.45;;;;;;;;;;5035014;28;20053;-88
2023/09/12 00:59:31;;;;;;;15.52;9.02;;;;;;;;;;5052721;28;20045;-88
2023/09/12 01:01:59;;;;;;;14.82;9.02;;;;;;;;;;5052579;28;20057;-88
2023/09/12 01:04:27;;;;;;;13.32;9.10;;;;;;;;;;5052597;28;20049;-88
2023/09/12 01:07:03;;;;;;;15.75;9.70;;;;;;;;;;5037060;28;20470;-88
2023/09/12 01:09:31;;;;;;;13.07;9.07;;;;;;;;;;5039128;28;20493;-88
2023/09/12 01:11:58;;;;;;;16.48;9.98;;;;;;;;;;5038476;28;20052;-88
2023/09/12 01:14:25;;;;;;;15.82;9.68;;;;;;;;;;5038593;28;20592;-88
2023/09/12 01:16:53;;;;;;;16.25;9.68;;;;;;;;;;5038357;28;20067;-88
2023/09/12 01:19:20;;;;;;;11.40;8.60;;;;;;;;;;5055920;28;20044;-88
2023/09/12 01:22:06;;;;;;;13.10;8.95;;;;;;;;;;5038390;28;20110;-88
2023/09/12 01:24:42;;;;;;;15.98;9.15;;;;;;;;;;5038389;28;20087;-88
2023/09/12 01:27:22;;;;;;;12.65;9.27;;;;;;;;;;5055718;28;20080;-88
2023/09/12 01:29:51;;;;;;;17.98;10.07;;;;;;;;;;5031783;28;20135;-88
2023/09/12 01:32:20;;;;;;;13.63;8.90;;;;;;;;;;5038740;28;20489;-88
2023/09/12 01:34:47;;;;;;;11.88;9.32;;;;;;;;;;5055656;28;20555;-88
2023/09/12 01:37:15;;;;;;;14.85;8.88;;;;;;;;;;5055745;28;20049;-88
2023/09/12 01:39:42;;;;;;;10.25;8.95;;;;;;;;;;5055322;28;20084;-88
2023/09/12 01:42:15;;;;;;;11.93;8.88;;;;;;;;;;5055613;28;20069;-88
2023/09/12 01:44:44;;;;;;;10.43;8.37;;;;;;;;;;5030908;28;20053;-88
2023/09/12 01:47:12;;;;;;;9.68;8.32;;;;;;;;;;5037935;28;20045;-88
2023/09/12 01:49:46;;;;;;;13.38;8.93;;;;;;;;;;5030117;28;20053;-88
2023/09/12 01:52:14;;;;;;;15.93;9.38;;;;;;;;;;5037600;28;20087;-88
2023/09/12 01:54:42;;;;;;;12.80;9.43;;;;;;;;;;5038072;28;20460;-89
2023/09/12 01:57:11;;;;;;;14.07;9.00;;;;;;;;;;5055185;28;20049;-89
2023/09/12 01:59:38;;;;;;;15.68;8.90;;;;;;;;;;5037834;28;20041;-89
2023/09/12 02:02:07;;;;;;;12.15;8.35;;;;;;;;;;5037583;28;20498;-89
2023/09/12 02:04:34;;;;;;;14.10;8.82;;;;;;;;;;5037496;28;20099;-88
2023/09/12 02:07:01;;;;;;;11.40;8.68;;;;;;;;;;5054577;28;20049;-88
2023/09/12 02:09:28;;;;;;;14.40;9.40;;;;;;;;;;5055083;28;20076;-88
2023/09/12 02:11:56;;;;;;;16.73;9.80;;;;;;;;;;5037407;28;20049;-88
2023/09/12 02:14:23;;;;;;;16.70;9.38;;;;;;;;;;5037478;28;20076;-88
2023/09/12 02:16:50;;;;;;;13.65;9.02;;;;;;;;;;5054795;28;20409;-87
2023/09/12 02:19:18;;;;;;;12.60;9.50;;;;;;;;;;5036910;28;20140;-88
2023/09/12 02:21:45;;;;;;;15.15;9.77;;;;;;;;;;5037429;28;20547;-88
2023/09/12 02:24:12;;;;;;;12.57;9.30;;;;;;;;;;5036995;28;20056;-88
2023/09/12 02:26:39;;;;;;;13.50;9.32;;;;;;;;;;5037382;28;20045;-88
2023/09/12 02:29:07;;;;;;;15.02;9.88;;;;;;;;;;5054408;28;20063;-87
2023/09/12 02:31:34;;;;;;;18.13;11.07;;;;;;;;;;5037132;28;20045;-88
2023/09/12 02:34:01;;;;;;;18.20;10.05;;;;;;;;;;5054551;28;20136;-88
2023/09/12 02:36:29;;;;;;;20.30;11.02;;;;;;;;;;5054757;28;20051;-88
2023/09/12 02:38:56;;;;;;;17.58;10.20;;;;;;;;;;5036819;28;20053;-88
2023/09/12 02:41:24;;;;;;;15.50;9.82;;;;;;;;;;5054372;28;20555;-88
2023/09/12 02:43:51;;;;;;;17.48;10.25;;;;;;;;;;5054392;28;20041;-88
2023/09/12 02:46:18;;;;;;;18.70;10.85;;;;;;;;;;5036769;28;20045;-88
2023/09/12 02:48:45;;;;;;;14.98;10.13;;;;;;;;;;5036667;28;20088;-88
2023/09/12 02:51:13;;;;;;;16.42;10.18;;;;;;;;;;5036631;28;20041;-88
2023/09/12 02:53:40;;;;;;;17.08;9.68;;;;;;;;;;5054344;28;20049;-88
2023/09/12 02:56:08;;;;;;;14.50;10.02;;;;;;;;;;5036054;28;20448;-88
2023/09/12 02:58:35;;;;;;;19.77;10.35;;;;;;;;;;5036140;28;20044;-88
2023/09/12 03:01:06;;;;;;;19.15;11.18;;;;;;;;;;5053736;28;20128;-88
2023/09/12 03:03:34;;;;;;;15.10;10.38;;;;;;;;;;5036158;28;20052;-88
2023/09/12 03:06:05;;;;;;;15.68;10.23;;;;;;;;;;5036222;28;20056;-87
2023/09/12 03:08:32;;;;;;;18.08;10.55;;;;;;;;;;5036115;28;20452;-88
2023/09/12 03:11:01;;;;;;;17.88;10.32;;;;;;;;;;5036186;28;20052;-88
2023/09/12 03:13:29;;;;;;;20.45;9.57;;;;;;;;;;5053673;28;20114;-88
2023/09/12 03:15:56;;;;;;;15.13;9.65;;;;;;;;;;5035981;28;20045;-88
2023/09/12 03:18:23;;;;;;;16.48;10.88;;;;;;;;;;5036375;28;20194;-88
2023/09/12 03:20:51;;;;;;;14.35;9.55;;;;;;;;;;5036152;28;20060;-88
2023/09/12 03:23:19;;;;;;;19.35;10.45;;;;;;;;;;5036260;28;20122;-88
2023/09/12 03:25:47;;;;;;;13.98;10.27;;;;;;;;;;5036252;28;20045;-88
2023/09/12 03:28:14;;;;;;;12.65;9.88;;;;;;;;;;5036025;28;20053;-87
2023/09/12 03:30:41;;;;;;;15.98;10.23;;;;;;;;;;5035254;28;20076;-87
2023/09/12 03:33:09;;;;;;;16.58;11.50;;;;;;;;;;5036174;28;20110;-88
2023/09/12 03:35:36;;;;;;;16.08;9.65;;;;;;;;;;5035930;28;20045;-88
2023/09/12 03:38:04;;;;;;;16.45;11.15;;;;;;;;;;5053392;28;20061;-88
2023/09/12 03:40:32;;;;;;;19.35;11.48;;;;;;;;;;5035837;28;20281;-87
2023/09/12 03:42:59;;;;;;;16.77;10.93;;;;;;;;;;5035940;28;20053;-87
2023/09/12 03:45:26;;;;;;;14.02;10.88;;;;;;;;;;5053352;28;20103;-87
2023/09/12 03:47:54;;;;;;;12.43;10.15;;;;;;;;;;5035761;28;20076;-87
2023/09/12 03:50:21;;;;;;;14.68;10.18;;;;;;;;;;5035828;28;20140;-88
2023/09/12 03:52:48;;;;;;;19.13;11.25;;;;;;;;;;5035663;28;20053;-88
2023/09/12 03:55:16;;;;;;;18.77;11.13;;;;;;;;;;5053028;28;20045;-88
2023/09/12 03:57:43;;;;;;;16.92;10.55;;;;;;;;;;5035722;28;20460;-88
2023/09/12 04:00:11;;;;;;;17.02;11.38;;;;;;;;;;5053146;28;20053;-88
2023/09/12 04:02:38;;;;;;;12.32;9.75;;;;;;;;;;5027871;28;20064;-88
2023/09/12 04:05:06;;;;;;;15.02;10.07;;;;;;;;;;5035537;28;20140;-87
2023/09/12 04:07:33;;;;;;;14.82;10.25;;;;;;;;;;5035430;28;20041;-88
2023/09/12 04:10:00;;;;;;;12.48;10.20;;;;;;;;;;5053018;28;20065;-88
2023/09/12 04:12:27;;;;;;;17.45;11.10;;;;;;;;;;5053025;28;20068;-88
2023/09/12 04:14:55;;;;;;;16.85;10.52;;;;;;;;;;5035307;28;20524;-88
2023/09/12 04:17:22;;;;;;;15.73;10.65;;;;;;;;;;5034583;28;20041;-87
2023/09/12 04:19:49;;;;;;;20.92;10.95;;;;;;;;;;5052884;28;20412;-88
2023/09/12 04:22:17;;;;;;;19.45;11.43;;;;;;;;;;5052811;28;20106;-87
2023/09/12 04:24:46;;;;;;;16.23;10.15;;;;;;;;;;5036180;28;20492;-88
2023/09/12 04:27:14;;;;;;;16.83;10.20;;;;;;;;;;5035361;28;20049;-87
2023/09/12 04:29:41;;;;;;;18.67;10.60;;;;;;;;;;5053005;28;20095;-88
2023/09/12 04:32:08;;;;;;;20.50;10.93;;;;;;;;;;5035339;28;20077;-88
2023/09/12 04:34:36;;;;;;;20.75;10.95;;;;;;;;;;5052719;28;20091;-88
2023/09/12 04:37:05;;;;;;;17.92;11.50;;;;;;;;;;5052625;28;20136;-87
2023/09/12 04:39:33;;;;;;;18.20;10.18;;;;;;;;;;5052309;28;20061;-88
2023/09/12 04:42:00;;;;;;;16.88;11.57;;;;;;;;;;5037843;28;20461;-88
2023/09/12 04:44:28;;;;;;;12.82;9.57;;;;;;;;;;5056303;28;20102;-87
2023/09/12 04:46:55;;;;;;;15.77;9.95;;;;;;;;;;5038959;28;20048;-88
2023/09/12 04:49:22;;;;;;;15.88;10.50;;;;;;;;;;5056157;28;20131;-88
2023/09/12 04:51:49;;;;;;;15.27;9.90;;;;;;;;;;5038935;28;20420;-88
2023/09/12 04:54:17;;;;;;;15.95;11.27;;;;;;;;;;5038629;28;20055;-87
2023/09/12 04:56:44;;;;;;;20.35;10.95;;;;;;;;;;5038468;28;20123;-87
2023/09/12 04:59:11;;;;;;;16.33;11.63;;;;;;;;;;5038920;28;20481;-88
2023/09/12 05:01:39;;;;;;;24.55;11.95;;;;;;;;;;5038957;28;20090;-88
2023/09/12 05:04:07;;;;;;;17.80;12.68;;;;;;;;;;5038276;28;20049;-87
2023/09/12 05:06:34;;;;;;;26.50;12.52;;;;;;;;;;5038615;28;20088;-87
2023/09/12 05:09:02;;;;;;;28.05;12.02;;;;;;;;;;5038612;28;20053;-87
2023/09/12 05:11:30;;;;;;;21.13;12.70;;;;;;;;;;5038485;28;20099;-87
2023/09/12 05:13:57;;;;;;;21.90;11.35;;;;;;;;;;5055815;28;20489;-87
2023/09/12 05:16:24;;;;;;;17.92;11.15;;;;;;;;;;5055494;28;20049;-87
2023/09/12 05:18:52;;;;;;;24.55;12.55;;;;;;;;;;5038134;28;20390;-88
2023/09/12 05:21:19;;;;;;;20.17;12.23;;;;;;;;;;5055710;28;20148;-89
2023/09/12 05:23:49;;;;;;;17.05;12.45;;;;;;;;;;5038344;28;20053;-88
2023/09/12 05:26:16;;;;;;;16.77;12.27;;;;;;;;;;5037934;28;20110;-88
2023/09/12 05:28:44;;;;;;;16.48;11.50;;;;;;;;;;5037884;28;20044;-88
2023/09/12 05:31:11;;;;;;;23.38;12.07;;;;;;;;;;5037398;28;20049;-88
2023/09/12 05:33:38;;;;;;;20.80;11.35;;;;;;;;;;5038267;28;20059;-88
2023/09/12 05:36:06;;;;;;;28.70;12.18;;;;;;;;;;5038092;28;20048;-87
2023/09/12 05:38:33;;;;;;;15.95;10.13;;;;;;;;;;5036077;28;20065;-88
2023/09/12 05:41:01;;;;;;;16.63;9.50;;;;;;;;;;5037957;28;20073;-88
2023/09/12 05:43:29;;;;;;;15.57;9.88;;;;;;;;;;5033390;28;20118;-88
2023/09/12 05:45:57;;;;;;;18.50;8.85;;;;;;;;;;5030089;28;20057;-88
2023/09/12 05:48:25;;;;;;;14.75;9.25;;;;;;;;;;5031269;28;20485;-88
2023/09/12 05:50:53;;;;;;;24.90;9.95;;;;;;;;;;5030679;28;20136;-89
2023/09/12 05:53:20;;;;;;;15.07;10.20;;;;;;;;;;5053423;28;20057;-89
2023/09/12 05:55:47;;;;;;;30.60;11.85;;;;;;;;;;5037725;28;20045;-88
2023/09/12 05:58:14;;;;;;;20.58;10.35;;;;;;;;;;5037215;28;20110;-88
2023/09/12 06:00:41;;;;;;;22.80;10.02;;;;;;;;;;5055272;28;20084;-89
2023/09/12 06:03:09;;;;;;;24.27;9.52;;;;;;;;;;5037914;28;20060;-88
2023/09/12 06:05:36;;;;;;;74.95;16.40;;;;;;;;;;5037586;28;20049;-89
2023/09/12 06:08:04;;;;;;;46.05;12.90;;;;;;;;;;5037368;28;20044;-88
2023/09/12 06:10:32;;;;;;;31.25;11.60;;;;;;;;;;5037026;28;20083;-88
2023/09/12 06:13:00;;;;;;;24.98;10.63;;;;;;;;;;5037708;28;20045;-88
2023/09/12 06:15:27;;;;;;;24.48;10.65;;;;;;;;;;5037341;28;20087;-88
2023/09/12 06:17:54;;;;;;;20.00;10.00;;;;;;;;;;5037530;28;20044;-89
2023/09/12 06:20:22;;;;;;;21.33;9.40;;;;;;;;;;5036438;28;20045;-88
2023/09/12 06:22:49;;;;;;;23.70;9.48;;;;;;;;;;5037042;28;20132;-88
2023/09/12 06:25:16;;;;;;;25.20;9.55;;;;;;;;;;5036774;28;20084;-89
2023/09/12 06:27:44;;;;;;;15.15;8.50;;;;;;;;;;5054738;28;20362;-89
2023/09/12 06:30:11;;;;;;;24.40;9.15;;;;;;;;;;5037214;28;20110;-90
2023/09/12 06:32:39;;;;;;;14.15;8.20;;;;;;;;;;5036931;28;20045;-90
2023/09/12 06:35:06;;;;;;;17.13;8.52;;;;;;;;;;5053893;28;20056;-90
2023/09/12 06:37:34;;;;;;;24.27;10.75;;;;;;;;;;5054470;28;20068;-90
2023/09/12 06:40:01;;;;;;;33.60;12.88;;;;;;;;;;5036775;28;20053;-89
2023/09/12 06:42:28;;;;;;;33.90;13.85;;;;;;;;;;5053911;28;20467;-88
2023/09/12 06:44:56;;;;;;;19.67;8.50;;;;;;;;;;5053667;28;20131;-91
2023/09/12 06:47:23;;;;;;;19.52;7.75;;;;;;;;;;5036880;28;20087;-91
2023/09/12 06:49:50;;;;;;;12.07;6.97;;;;;;;;;;5036660;28;20052;-90
2023/09/12 06:52:22;;;;;;;15.80;7.03;;;;;;;;;;5054152;28;20087;-90
2023/09/12 06:54:49;;;;;;;11.15;7.10;;;;;;;;;;5036745;28;20059;-90
2023/09/12 06:57:17;;;;;;;16.63;6.75;;;;;;;;;;5036789;28;20049;-91
2023/09/12 06:59:44;;;;;;;9.02;6.15;;;;;;;;;;5054964;28;20053;-90
2023/09/12 07:02:12;;;;;;;13.98;6.93;;;;;;;;;;5054407;28;20102;-90
2023/09/12 07:04:40;;;;;;;12.52;6.85;;;;;;;;;;5037120;28;20057;-90
2023/09/12 07:07:07;;;;;;;12.63;6.32;;;;;;;;;;5036587;28;20057;-91
2023/09/12 07:09:34;;;;;;;11.13;6.07;;;;;;;;;;5036795;28;20052;-94
2023/09/12 07:12:01;;;;;;;9.75;6.47;;;;;;;;;;5036725;28;20519;-91
2023/09/12 07:14:31;;;;;;;16.33;6.72;;;;;;;;;;5036546;28;20053;-90
2023/09/12 07:16:58;;;;;;;30.05;10.95;;;;;;;;;;5036528;28;20094;-91
2023/09/12 07:19:25;;;;;;;32.45;8.95;;;;;;;;;;5036379;28;20079;-92
2023/09/12 07:21:53;;;;;;;13.13;6.75;;;;;;;;;;5036520;28;20041;-91
2023/09/12 07:24:20;;;;;;;21.75;7.30;;;;;;;;;;5036079;28;20057;-90
2023/09/12 07:26:47;;;;;;;17.38;8.00;;;;;;;;;;5036054;28;20135;-91
2023/09/12 07:29:14;;;;;;;34.63;10.68;;;;;;;;;;5036025;28;20049;-90
2023/09/12 07:31:42;;;;;;;28.77;9.18;;;;;;;;;;5036190;28;20045;-90
2023/09/12 07:34:11;;;;;;;33.75;9.02;;;;;;;;;;5036151;28;20149;-91
2023/09/12 07:36:39;;;;;;;22.85;8.73;;;;;;;;;;5036220;28;20099;-90
2023/09/12 07:39:06;;;;;;;23.70;8.55;;;;;;;;;;5032229;28;20464;-90
2023/09/12 07:41:34;;;;;;;41.05;9.27;;;;;;;;;;5032440;28;20395;-87
2023/09/12 07:44:04;;;;;;;44.92;9.93;;;;;;;;;;5032435;28;20463;-88
2023/09/12 07:46:31;;;;;;;20.70;7.03;;;;;;;;;;5032126;28;20075;-88
2023/09/12 07:48:59;;;;;;;27.88;7.85;;;;;;;;;;5032275;28;20092;-88
2023/09/12 07:51:26;;;;;;;12.60;5.35;;;;;;;;;;5032181;28;20107;-88
2023/09/12 07:53:53;;;;;;;22.00;7.05;;;;;;;;;;5032413;28;20049;-88
2023/09/12 07:56:20;;;;;;;22.52;7.07;;;;;;;;;;5031723;28;20563;-87
2023/09/12 07:58:49;;;;;;;22.15;7.32;;;;;;;;;;5031785;28;20385;-86
2023/09/12 08:01:16;;;;;;;18.33;6.07;;;;;;;;;;5032194;28;20064;-86
2023/09/12 08:03:44;;;;;;;18.75;6.82;;;;;;;;;;5032151;28;20490;-86
2023/09/12 08:06:11;;;;;;;13.85;5.78;;;;;;;;;;5032496;28;20050;-87
2023/09/12 08:08:39;;;;;;;13.35;5.55;;;;;;;;;;5031698;28;20489;-87
2023/09/12 08:11:07;;;;;;;12.18;5.88;;;;;;;;;;5032105;28;20050;-87
2023/09/12 08:13:36;;;;;;;18.38;6.47;;;;;;;;;;5032227;28;20136;-87
2023/09/12 08:16:03;;;;;;;16.20;6.35;;;;;;;;;;5032877;28;20045;-87
2023/09/12 08:18:31;;;;;;;22.60;5.93;;;;;;;;;;5036194;28;20148;-87
2023/09/12 08:20:58;;;;;;;12.50;5.55;;;;;;;;;;5036147;28;20520;-87
2023/09/12 08:23:25;;;;;;;21.92;6.50;;;;;;;;;;5036194;28;20049;-87
2023/09/12 08:25:53;;;;;;;23.23;5.78;;;;;;;;;;5036064;28;20091;-86
2023/09/12 08:28:20;;;;;;;20.60;5.80;;;;;;;;;;5036574;28;20490;-88
2023/09/12 08:30:47;;;;;;;15.55;5.93;;;;;;;;;;5036155;28;20049;-87
2023/09/12 08:33:15;;;;;;;15.43;5.43;;;;;;;;;;5035948;28;20053;-87
2023/09/12 08:35:43;;;;;;;32.63;6.75;;;;;;;;;;5036974;28;20049;-87
2023/09/12 08:38:11;;;;;;;17.63;5.53;;;;;;;;;;5036119;28;20462;-87
2023/09/12 08:40:39;;;;;;;27.08;7.85;;;;;;;;;;5027922;28;20486;-88
2023/09/12 08:43:06;;;;;;;21.85;6.03;;;;;;;;;;5036890;28;20410;-89
2023/09/12 08:45:35;;;;;;;13.15;5.13;;;;;;;;;;5035722;28;20100;-88
2023/09/12 08:48:04;;;;;;;12.27;4.47;;;;;;;;;;5036627;28;20053;-88
2023/09/12 08:50:34;;;;;;;15.80;4.60;;;;;;;;;;5036373;28;20144;-89
2023/09/12 08:53:01;;;;;;;12.35;4.70;;;;;;;;;;5036401;28;20072;-87
2023/09/12 08:55:37;;;;;;;16.13;4.65;;;;;;;;;;5035303;28;20056;-87
2023/09/12 08:58:05;;;;;;;14.77;5.07;;;;;;;;;;5035586;28;20146;-88
2023/09/12 09:00:35;;;;;;;11.23;5.20;;;;;;;;;;5035226;28;20053;-88
2023/09/12 09:03:03;;;;;;;14.77;4.85;;;;;;;;;;5035142;28;20080;-88
2023/09/12 09:05:31;;;;;;;10.05;4.72;;;;;;;;;;5035135;28;20107;-88
2023/09/12 09:07:59;;;;;;;18.20;4.80;;;;;;;;;;5035160;28;20119;-88
2023/09/12 09:10:32;;;;;;;10.00;4.28;;;;;;;;;;5035124;28;20051;-89
2023/09/12 09:13:16;;;;;;;7.32;4.45;;;;;;;;;;5035246;28;20095;-88
2023/09/12 09:15:43;;;;;;;11.50;4.43;;;;;;;;;;5034972;28;20504;-87
2023/09/12 09:18:12;;;;;;;11.32;4.50;;;;;;;;;;5036069;28;20054;-86
2023/09/12 09:20:40;;;;;;;11.57;4.97;;;;;;;;;;5035309;28;20054;-88
2023/09/12 09:23:09;;;;;;;6.47;4.07;;;;;;;;;;5035416;28;20436;-86
2023/09/12 09:25:40;;;;;;;11.30;4.07;;;;;;;;;;5035938;28;20045;-88
2023/09/12 09:28:20;;;;;;;7.20;4.20;;;;;;;;;;5033939;28;20045;-89
2023/09/12 09:30:48;;;;;;;8.85;4.35;;;;;;;;;;5027769;28;20486;-87
2023/09/12 09:33:16;;;;;;;10.50;4.25;;;;;;;;;;5034931;28;20083;-88
2023/09/12 09:35:44;;;;;;;9.73;4.35;;;;;;;;;;5036006;28;20057;-86
2023/09/12 09:38:16;;;;;;;9.93;4.82;;;;;;;;;;5035145;28;20490;-87
2023/09/12 09:40:44;;;;;;;10.10;4.10;;;;;;;;;;5027486;28;20482;-89
2023/09/12 09:43:14;;;;;;;7.50;4.10;;;;;;;;;;5035137;28;20061;-87
2023/09/12 09:45:46;;;;;;;11.60;3.90;;;;;;;;;;5034816;28;20081;-88
2023/09/12 09:48:20;;;;;;;5.67;3.97;;;;;;;;;;5035171;28;20041;-87
2023/09/12 09:50:47;;;;;;;8.98;4.57;;;;;;;;;;5034240;28;20385;-87
2023/09/12 09:53:15;;;;;;;14.32;3.50;;;;;;;;;;5034843;28;20073;-88
2023/09/12 09:55:42;;;;;;;10.90;3.58;;;;;;;;;;5033624;28;20076;-87
2023/09/12 09:58:16;;;;;;;10.90;4.18;;;;;;;;;;5033413;28;20057;-88
2023/09/12 10:00:44;;;;;;;13.80;4.10;;;;;;;;;;5025920;28;20053;-90
2023/09/12 10:03:13;;;;;;;10.05;3.60;;;;;;;;;;5034896;28;20060;-88
2023/09/12 10:05:40;;;;;;;13.73;4.20;;;;;;;;;;5026098;28;20049;-91
2023/09/12 10:08:10;;;;;;;14.18;4.10;;;;;;;;;;5026988;28;20049;-88
2023/09/12 10:10:39;;;;;;;9.95;4.20;;;;;;;;;;5026141;28;20045;-86
2023/09/12 10:13:06;;;;;;;17.45;4.55;;;;;;;;;;5025535;28;20482;-89
2023/09/12 10:15:34;;;;;;;13.43;4.07;;;;;;;;;;5031824;28;20045;-89
2023/09/12 10:18:03;;;;;;;14.25;4.40;;;;;;;;;;5034306;28;20493;-88
2023/09/12 10:20:38;;;;;;;13.55;4.20;;;;;;;;;;5034283;28;20135;-88
2023/09/12 10:23:13;;;;;;;12.35;4.32;;;;;;;;;;5034587;28;20436;-90
2023/09/12 10:25:40;;;;;;;11.20;4.05;;;;;;;;;;5027481;28;20497;-89
2023/09/12 10:28:08;;;;;;;11.27;4.55;;;;;;;;;;5034458;28;20379;-89
2023/09/12 10:30:38;;;;;;;10.63;4.05;;;;;;;;;;5034175;28;20052;-88
2023/09/12 10:33:06;;;;;;;12.10;4.53;;;;;;;;;;5034379;28;20531;-89
2023/09/12 10:35:35;;;;;;;12.10;4.28;;;;;;;;;;5034151;28;20064;-90
2023/09/12 10:38:06;;;;;;;10.05;4.20;;;;;;;;;;5033856;28;20528;-85
2023/09/12 10:40:36;;;;;;;16.63;3.90;;;;;;;;;;5033371;28;20049;-89
2023/09/12 10:43:11;;;;;;;17.05;4.03;;;;;;;;;;5034539;28;20057;-88
2023/09/12 10:45:38;;;;;;;13.85;4.32;;;;;;;;;;5026314;28;20045;-88
2023/09/12 10:48:06;;;;;;;16.70;4.15;;;;;;;;;;5038584;28;20139;-88
2023/09/12 10:50:33;;;;;;;12.35;3.83;;;;;;;;;;5033735;28;20119;-90
2023/09/12 10:53:14;;;;;;;9.10;4.05;;;;;;;;;;5033659;28;20088;-89
2023/09/12 10:55:42;;;;;;;15.35;4.22;;;;;;;;;;5025459;28;20041;-88
2023/09/12 10:58:10;;;;;;;12.70;4.10;;;;;;;;;;5033806;28;20049;-88
2023/09/12 11:00:39;;;;;;;13.65;3.90;;;;;;;;;;5024917;28;20049;-88
2023/09/12 11:03:25;;;;;;;12.02;3.95;;;;;;;;;;5034443;28;20119;-88
2023/09/12 11:05:53;;;;;;;18.67;4.28;;;;;;;;;;5027238;28;20057;-87
2023/09/12 11:08:21;;;;;;;12.60;4.63;;;;;;;;;;5032845;28;20056;-88
2023/09/12 11:11:07;;;;;;;13.35;3.78;;;;;;;;;;5033338;28;20053;-89
2023/09/12 11:13:42;;;;;;;12.35;3.85;;;;;;;;;;5032903;28;20045;-88
2023/09/12 11:16:14;;;;;;;14.48;4.63;;;;;;;;;;5033166;28;20085;-87
2023/09/12 11:19:02;;;;;;;12.45;4.07;;;;;;;;;;5025530;28;20048;-88
2023/09/12 11:21:33;;;;;;;11.30;4.25;;;;;;;;;;5032746;28;20053;-88
2023/09/12 11:24:01;;;;;;;14.25;4.28;;;;;;;;;;5032963;28;20056;-90
2023/09/12 11:26:28;;;;;;;10.95;3.95;;;;;;;;;;5032829;28;20053;-86
2023/09/12 11:28:56;;;;;;;18.33;3.67;;;;;;;;;;5034335;28;20060;-88
2023/09/12 11:31:26;;;;;;;10.73;4.15;;;;;;;;;;5032531;28;20049;-87
2023/09/12 11:33:54;;;;;;;15.68;4.15;;;;;;;;;;5033364;28;20095;-88
2023/09/12 11:36:22;;;;;;;12.77;3.60;;;;;;;;;;5034088;28;20103;-92
2023/09/12 11:38:50;;;;;;;19.17;4.38;;;;;;;;;;5031485;28;20535;-86
2023/09/12 11:41:56;;;;;;;10.10;4.00;;;;;;;;;;5032530;28;20089;-87
2023/09/12 11:44:23;;;;;;;14.88;3.72;;;;;;;;;;4973104;28;20054;-89
2023/09/12 11:46:51;;;;;;;17.70;4.95;;;;;;;;;;4973097;28;20074;-86
2023/09/12 11:49:22;;;;;;;20.98;4.28;;;;;;;;;;5002807;28;20111;-86
2023/09/12 11:51:49;;;;;;;19.35;4.00;;;;;;;;;;5032827;28;20512;-90
2023/09/12 11:54:26;;;;;;;9.73;3.78;;;;;;;;;;5032486;28;20045;-89
2023/09/12 11:56:59;;;;;;;13.23;4.13;;;;;;;;;;5032467;28;20080;-90
2023/09/12 11:59:27;;;;;;;10.95;3.85;;;;;;;;;;5032540;28;20061;-88
2023/09/12 12:01:55;;;;;;;16.15;4.68;;;;;;;;;;5032525;28;20095;-88
2023/09/12 12:04:24;;;;;;;17.45;4.20;;;;;;;;;;5032577;28;20140;-87
2023/09/12 12:06:52;;;;;;;8.05;4.03;;;;;;;;;;5032594;28;20059;-88
2023/09/12 12:09:20;;;;;;;14.07;4.22;;;;;;;;;;5031723;28;20052;-89
2023/09/12 12:11:48;;;;;;;8.95;3.83;;;;;;;;;;5032461;28;20137;-90
2023/09/12 12:14:16;;;;;;;14.18;4.30;;;;;;;;;;5032494;28;20049;-87
2023/09/12 12:16:44;;;;;;;15.20;3.60;;;;;;;;;;5032627;28;20054;-88
2023/09/12 12:19:12;;;;;;;10.50;3.97;;;;;;;;;;5032467;28;20474;-87
2023/09/12 12:21:40;;;;;;;16.77;4.05;;;;;;;;;;5031734;28;20079;-88
2023/09/12 12:24:08;;;;;;;12.80;3.72;;;;;;;;;;5032248;28;20049;-89
2023/09/12 12:26:35;;;;;;;20.73;4.53;;;;;;;;;;5032892;28;20091;-87
2023/09/12 12:29:04;;;;;;;13.75;3.67;;;;;;;;;;5031671;28;20108;-87
2023/09/12 12:31:31;;;;;;;14.68;4.18;;;;;;;;;;5031757;28;20563;-88
2023/09/12 12:34:00;;;;;;;13.95;3.58;;;;;;;;;;5031719;28;20045;-90
2023/09/12 12:36:47;;;;;;;7.63;3.85;;;;;;;;;;5025151;28;20148;-86
2023/09/12 12:39:24;;;;;;;9.18;3.80;;;;;;;;;;5031594;28;20100;-87
2023/09/12 12:41:53;;;;;;;13.48;3.78;;;;;;;;;;5032733;28;20053;-87
2023/09/12 12:44:21;;;;;;;12.02;3.63;;;;;;;;;;5031830;28;20428;-87
2023/09/12 12:46:48;;;;;;;10.40;4.15;;;;;;;;;;5032815;28;20481;-89
2023/09/12 12:49:16;;;;;;;13.20;3.88;;;;;;;;;;5031617;28;20144;-87
2023/09/12 12:51:44;;;;;;;12.50;4.55;;;;;;;;;;5032721;28;20046;-88
2023/09/12 12:54:11;;;;;;;17.77;4.95;;;;;;;;;;5032960;28;20128;-87
2023/09/12 12:56:39;;;;;;;16.60;4.50;;;;;;;;;;5023140;28;20057;-87
2023/09/12 12:59:08;;;;;;;18.95;4.10;;;;;;;;;;5032505;28;20088;-87
2023/09/12 13:01:36;;;;;;;17.55;4.53;;;;;;;;;;5033148;28;20081;-87
2023/09/12 13:04:10;;;;;;;17.27;3.83;;;;;;;;;;5036497;28;20053;-88
2023/09/12 13:06:37;;;;;;;8.32;3.90;;;;;;;;;;5035073;28;20049;-87
2023/09/12 13:09:06;;;;;;;10.82;4.13;;;;;;;;;;5035163;28;20137;-86
2023/09/12 13:11:34;;;;;;;13.00;3.83;;;;;;;;;;5034510;28;20085;-88
2023/09/12 13:14:03;;;;;;;13.40;4.03;;;;;;;;;;5035135;28;20123;-91
2023/09/12 13:16:31;;;;;;;22.33;4.72;;;;;;;;;;5036310;28;20042;-88
2023/09/12 13:18:58;;;;;;;12.63;3.75;;;;;;;;;;5034828;28;20191;-88
2023/09/12 13:21:26;;;;;;;15.60;4.20;;;;;;;;;;5034786;28;20081;-89
2023/09/12 13:23:53;;;;;;;16.08;4.53;;;;;;;;;;5034965;28;20057;-89
2023/09/12 13:26:20;;;;;;;13.95;4.47;;;;;;;;;;5034897;28;20060;-89
2023/09/12 13:28:48;;;;;;;12.35;4.03;;;;;;;;;;5035095;28;20046;-89
2023/09/12 13:31:15;;;;;;;10.55;4.10;;;;;;;;;;5035099;28;20054;-91
2023/09/12 13:33:42;;;;;;;17.38;4.55;;;;;;;;;;5034379;28;20057;-89
2023/09/12 13:36:10;;;;;;;16.67;4.85;;;;;;;;;;5034669;28;20053;-89
2023/09/12 13:38:37;;;;;;;11.20;3.97;;;;;;;;;;5034450;28;20119;-90
2023/09/12 13:41:05;;;;;;;12.25;4.85;;;;;;;;;;5034526;28;20456;-89
2023/09/12 13:43:32;;;;;;;16.33;4.55;;;;;;;;;;5034740;28;20045;-89
2023/09/12 13:45:59;;;;;;;19.33;4.32;;;;;;;;;;5034880;28;20056;-88
2023/09/12 13:48:27;;;;;;;21.92;5.00;;;;;;;;;;5034424;28;20042;-89
2023/09/12 13:50:54;;;;;;;13.90;4.90;;;;;;;;;;5034525;28;20054;-88
2023/09/12 13:53:22;;;;;;;14.90;4.28;;;;;;;;;;5035492;28;20133;-88
2023/09/12 13:55:49;;;;;;;17.17;5.05;;;;;;;;;;5035355;28;20045;-87
2023/09/12 13:58:31;;;;;;;15.73;5.20;;;;;;;;;;5034474;28;20048;-90
2023/09/12 14:01:10;;;;;;;12.90;5.40;;;;;;;;;;5035231;28;20049;-86
2023/09/12 14:03:47;;;;;;;13.13;3.95;;;;;;;;;;5027420;28;20194;-89
2023/09/12 14:06:16;;;;;;;20.45;5.18;;;;;;;;;;5033909;28;20240;-90
2023/09/12 14:08:43;;;;;;;12.20;4.85;;;;;;;;;;5035182;28;20054;-90
2023/09/12 14:11:11;;;;;;;12.52;4.95;;;;;;;;;;5033916;28;20050;-89
2023/09/12 14:13:50;;;;;;;21.90;5.55;;;;;;;;;;5027943;28;20077;-90
2023/09/12 14:16:33;;;;;;;21.52;5.80;;;;;;;;;;5034100;28;20136;-91
2023/09/12 14:19:01;;;;;;;23.13;5.15;;;;;;;;;;5034247;28;20046;-91
2023/09/12 14:21:30;;;;;;;18.67;4.63;;;;;;;;;;5033510;28;20045;-90
2023/09/12 14:23:58;;;;;;;17.35;5.03;;;;;;;;;;5033879;28;20042;-90
2023/09/12 14:26:25;;;;;;;11.40;4.40;;;;;;;;;;5033799;28;20092;-89
2023/09/12 14:28:53;;;;;;;16.02;4.82;;;;;;;;;;5035166;28;20072;-86
2023/09/12 14:31:22;;;;;;;15.35;4.88;;;;;;;;;;5033837;28;20049;-88
2023/09/12 14:33:52;;;;;;;15.88;5.05;;;;;;;;;;5033993;28;20046;-88
2023/09/12 14:36:20;;;;;;;15.07;4.80;;;;;;;;;;5033694;28;20057;-88